Austin (AUS/KAUS)

Information

Location
Austin, TX
Local Time
21:27 / 9:27 pm
GMT Time
02:27 / 2:27 am
Gates
Unassigned
No FAA reported delays
METAR KAUS 280153Z COR 00000KT 10SM SCT040 SCT200 24/19 A2980 RMK AO2 SLP084 T02390194
TAF KAUS 272339Z 2800/2906 16007KT P6SM SCT035 FM280400 13006KT P6SM BKN025 FM280530 15008KT P6SM OVC012 FM280700 16008KT 4SM BR OVC007 FM281800 17016G22KT P6SM OVC025 FM282100 16021G28KT P6SM BKN050
  • No charts available